sensor_id;sensor_type;location;lat;lon;timestamp;temperature;humidity
21306;DHT22;10812;51.838;5.838;2023-05-23T00:01:23;15.40;99.90
21306;DHT22;10812;51.838;5.838;2023-05-23T00:03:51;15.50;99.90
21306;DHT22;10812;51.838;5.838;2023-05-23T00:06:22;15.50;99.90
21306;DHT22;10812;51.838;5.838;2023-05-23T00:08:52;15.40;99.90
21306;DHT22;10812;51.838;5.838;2023-05-23T00:11:20;15.40;99.90
21306;DHT22;10812;51.838;5.838;2023-05-23T00:13:52;15.30;99.90
21306;DHT22;10812;51.838;5.838;2023-05-23T00:16:21;15.30;99.90
21306;DHT22;10812;51.838;5.838;2023-05-23T00:18:49;15.30;99.90
21306;DHT22;10812;51.838;5.838;2023-05-23T00:21:17;15.30;99.90
21306;DHT22;10812;51.838;5.838;2023-05-23T00:23:46;15.20;99.90
21306;DHT22;10812;51.838;5.838;2023-05-23T00:26:15;15.30;99.90
21306;DHT22;10812;51.838;5.838;2023-05-23T00:28:43;15.20;99.90
21306;DHT22;10812;51.838;5.838;2023-05-23T00:31:11;15.20;99.90
21306;DHT22;10812;51.838;5.838;2023-05-23T00:33:39;15.20;99.90
21306;DHT22;10812;51.838;5.838;2023-05-23T00:36:08;15.10;99.90
21306;DHT22;10812;51.838;5.838;2023-05-23T00:38:36;15.10;99.90
21306;DHT22;10812;51.838;5.838;2023-05-23T00:41:05;15.10;99.90
21306;DHT22;10812;51.838;5.838;2023-05-23T00:43:34;15.00;99.90
21306;DHT22;10812;51.838;5.838;2023-05-23T00:46:03;15.00;99.90
21306;DHT22;10812;51.838;5.838;2023-05-23T00:48:32;15.00;99.90
21306;DHT22;10812;51.838;5.838;2023-05-23T00:51:01;15.00;99.90
21306;DHT22;10812;51.838;5.838;2023-05-23T00:53:29;15.00;99.90
21306;DHT22;10812;51.838;5.838;2023-05-23T00:55:57;15.00;99.90
21306;DHT22;10812;51.838;5.838;2023-05-23T00:58:25;14.90;99.90
21306;DHT22;10812;51.838;5.838;2023-05-23T01:04:36;14.90;99.90
21306;DHT22;10812;51.838;5.838;2023-05-23T01:07:05;14.80;99.90
21306;DHT22;10812;51.838;5.838;2023-05-23T01:09:33;14.70;99.90
21306;DHT22;10812;51.838;5.838;2023-05-23T01:12:11;14.70;99.90
21306;DHT22;10812;51.838;5.838;2023-05-23T01:14:46;14.70;99.90
21306;DHT22;10812;51.838;5.838;2023-05-23T01:17:20;14.60;99.90
21306;DHT22;10812;51.838;5.838;2023-05-23T01:19:58;14.50;99.90
21306;DHT22;10812;51.838;5.838;2023-05-23T01:22:37;14.50;99.90
21306;DHT22;10812;51.838;5.838;2023-05-23T01:25:15;14.50;99.90
21306;DHT22;10812;51.838;5.838;2023-05-23T01:27:53;14.50;99.90
21306;DHT22;10812;51.838;5.838;2023-05-23T01:30:23;14.50;99.90
21306;DHT22;10812;51.838;5.838;2023-05-23T01:32:53;14.50;99.90
21306;DHT22;10812;51.838;5.838;2023-05-23T01:35:24;14.40;99.90
21306;DHT22;10812;51.838;5.838;2023-05-23T01:37:53;14.30;99.90
21306;DHT22;10812;51.838;5.838;2023-05-23T01:40:21;14.30;99.90
21306;DHT22;10812;51.838;5.838;2023-05-23T01:42:53;14.30;99.90
21306;DHT22;10812;51.838;5.838;2023-05-23T01:45:25;14.30;99.90
21306;DHT22;10812;51.838;5.838;2023-05-23T01:47:55;14.20;99.90
21306;DHT22;10812;51.838;5.838;2023-05-23T01:58:16;14.10;99.90
21306;DHT22;10812;51.838;5.838;2023-05-23T02:00:45;14.00;99.90
21306;DHT22;10812;51.838;5.838;2023-05-23T02:03:13;14.00;99.90
21306;DHT22;10812;51.838;5.838;2023-05-23T02:05:41;14.00;99.90
21306;DHT22;10812;51.838;5.838;2023-05-23T02:08:10;14.00;99.90
21306;DHT22;10812;51.838;5.838;2023-05-23T02:10:38;14.00;99.90
21306;DHT22;10812;51.838;5.838;2023-05-23T02:13:06;14.00;99.90
21306;DHT22;10812;51.838;5.838;2023-05-23T02:15:36;14.00;99.90
21306;DHT22;10812;51.838;5.838;2023-05-23T02:18:04;14.10;99.90
21306;DHT22;10812;51.838;5.838;2023-05-23T02:20:32;14.10;99.90
21306;DHT22;10812;51.838;5.838;2023-05-23T02:23:01;14.10;99.90
21306;DHT22;10812;51.838;5.838;2023-05-23T02:25:29;14.10;99.90
21306;DHT22;10812;51.838;5.838;2023-05-23T02:27:57;14.10;99.90
21306;DHT22;10812;51.838;5.838;2023-05-23T02:30:25;14.20;99.90
21306;DHT22;10812;51.838;5.838;2023-05-23T02:32:54;14.20;99.90
21306;DHT22;10812;51.838;5.838;2023-05-23T02:35:24;14.20;99.90
21306;DHT22;10812;51.838;5.838;2023-05-23T02:37:52;14.20;99.90
21306;DHT22;10812;51.838;5.838;2023-05-23T02:40:20;14.20;99.90
21306;DHT22;10812;51.838;5.838;2023-05-23T02:42:48;14.20;99.90
21306;DHT22;10812;51.838;5.838;2023-05-23T02:45:17;14.20;99.90
21306;DHT22;10812;51.838;5.838;2023-05-23T02:47:45;14.10;99.90
21306;DHT22;10812;51.838;5.838;2023-05-23T02:50:15;14.10;99.90
21306;DHT22;10812;51.838;5.838;2023-05-23T02:52:43;14.10;99.90
21306;DHT22;10812;51.838;5.838;2023-05-23T02:55:11;14.10;99.90
21306;DHT22;10812;51.838;5.838;2023-05-23T02:57:39;14.10;99.90
21306;DHT22;10812;51.838;5.838;2023-05-23T03:08:22;14.10;99.90
21306;DHT22;10812;51.838;5.838;2023-05-23T03:10:50;14.10;99.90
21306;DHT22;10812;51.838;5.838;2023-05-23T03:13:19;14.10;99.90
21306;DHT22;10812;51.838;5.838;2023-05-23T03:15:47;14.00;99.90
21306;DHT22;10812;51.838;5.838;2023-05-23T03:18:15;14.00;99.90
21306;DHT22;10812;51.838;5.838;2023-05-23T03:20:43;14.00;99.90
21306;DHT22;10812;51.838;5.838;2023-05-23T03:23:11;13.90;99.90
21306;DHT22;10812;51.838;5.838;2023-05-23T03:25:42;13.80;99.90
21306;DHT22;10812;51.838;5.838;2023-05-23T03:28:10;13.80;99.90
21306;DHT22;10812;51.838;5.838;2023-05-23T03:30:39;13.90;99.90
21306;DHT22;10812;51.838;5.838;2023-05-23T03:33:07;13.90;99.90
21306;DHT22;10812;51.838;5.838;2023-05-23T03:35:35;13.90;99.90
21306;DHT22;10812;51.838;5.838;2023-05-23T03:38:03;13.90;99.90
21306;DHT22;10812;51.838;5.838;2023-05-23T03:40:31;13.90;99.90
21306;DHT22;10812;51.838;5.838;2023-05-23T03:43:04;13.90;99.90
21306;DHT22;10812;51.838;5.838;2023-05-23T03:45:32;14.00;99.90
21306;DHT22;10812;51.838;5.838;2023-05-23T03:48:01;14.00;99.90
21306;DHT22;10812;51.838;5.838;2023-05-23T03:50:29;14.00;99.90
21306;DHT22;10812;51.838;5.838;2023-05-23T03:52:57;14.00;99.90
21306;DHT22;10812;51.838;5.838;2023-05-23T03:55:25;14.10;99.90
21306;DHT22;10812;51.838;5.838;2023-05-23T03:57:54;14.00;99.90
21306;DHT22;10812;51.838;5.838;2023-05-23T04:00:23;14.10;99.90
21306;DHT22;10812;51.838;5.838;2023-05-23T04:02:52;14.10;99.90
21306;DHT22;10812;51.838;5.838;2023-05-23T04:05:20;14.20;99.90
21306;DHT22;10812;51.838;5.838;2023-05-23T04:07:48;14.10;99.90
21306;DHT22;10812;51.838;5.838;2023-05-23T04:10:17;14.10;99.90
21306;DHT22;10812;51.838;5.838;2023-05-23T04:12:45;14.20;99.90
21306;DHT22;10812;51.838;5.838;2023-05-23T04:15:13;14.20;99.90
21306;DHT22;10812;51.838;5.838;2023-05-23T04:17:45;14.20;99.90
21306;DHT22;10812;51.838;5.838;2023-05-23T04:20:13;14.20;99.90
21306;DHT22;10812;51.838;5.838;2023-05-23T04:22:41;14.20;99.90
21306;DHT22;10812;51.838;5.838;2023-05-23T04:25:09;14.20;99.90
21306;DHT22;10812;51.838;5.838;2023-05-23T04:27:38;14.20;99.90
21306;DHT22;10812;51.838;5.838;2023-05-23T04:30:07;14.20;99.90
21306;DHT22;10812;51.838;5.838;2023-05-23T04:32:36;14.20;99.90
21306;DHT22;10812;51.838;5.838;2023-05-23T04:35:06;14.20;99.90
21306;DHT22;10812;51.838;5.838;2023-05-23T04:37:34;14.20;99.90
21306;DHT22;10812;51.838;5.838;2023-05-23T04:40:04;14.20;99.90
21306;DHT22;10812;51.838;5.838;2023-05-23T04:42:32;14.20;99.90
21306;DHT22;10812;51.838;5.838;2023-05-23T04:45:01;14.20;99.90
21306;DHT22;10812;51.838;5.838;2023-05-23T04:47:30;14.30;99.90
21306;DHT22;10812;51.838;5.838;2023-05-23T04:50:05;14.20;99.90
21306;DHT22;10812;51.838;5.838;2023-05-23T04:52:35;14.20;99.90
21306;DHT22;10812;51.838;5.838;2023-05-23T04:55:04;14.10;99.90
21306;DHT22;10812;51.838;5.838;2023-05-23T04:57:33;14.10;99.90
21306;DHT22;10812;51.838;5.838;2023-05-23T05:00:01;14.10;99.90
21306;DHT22;10812;51.838;5.838;2023-05-23T05:02:33;14.00;99.90
21306;DHT22;10812;51.838;5.838;2023-05-23T05:05:02;14.10;99.90
21306;DHT22;10812;51.838;5.838;2023-05-23T05:07:32;14.00;99.90
21306;DHT22;10812;51.838;5.838;2023-05-23T05:10:01;14.00;99.90
21306;DHT22;10812;51.838;5.838;2023-05-23T05:12:29;14.00;99.90
21306;DHT22;10812;51.838;5.838;2023-05-23T05:15:12;14.00;99.90
21306;DHT22;10812;51.838;5.838;2023-05-23T05:17:41;13.90;99.90
21306;DHT22;10812;51.838;5.838;2023-05-23T05:20:10;13.80;99.90
21306;DHT22;10812;51.838;5.838;2023-05-23T05:22:39;13.80;99.90
21306;DHT22;10812;51.838;5.838;2023-05-23T05:25:09;13.80;99.90
21306;DHT22;10812;51.838;5.838;2023-05-23T05:27:38;13.70;99.90
21306;DHT22;10812;51.838;5.838;2023-05-23T05:30:08;13.60;99.90
21306;DHT22;10812;51.838;5.838;2023-05-23T05:32:36;13.70;99.90
21306;DHT22;10812;51.838;5.838;2023-05-23T05:35:05;13.70;99.90
21306;DHT22;10812;51.838;5.838;2023-05-23T05:37:34;13.70;99.90
21306;DHT22;10812;51.838;5.838;2023-05-23T05:40:05;13.70;99.90
21306;DHT22;10812;51.838;5.838;2023-05-23T05:42:34;13.70;99.90
21306;DHT22;10812;51.838;5.838;2023-05-23T05:45:03;13.60;99.90
21306;DHT22;10812;51.838;5.838;2023-05-23T05:47:31;13.50;99.90
21306;DHT22;10812;51.838;5.838;2023-05-23T05:49:59;13.40;99.90
21306;DHT22;10812;51.838;5.838;2023-05-23T05:52:29;13.40;99.90
21306;DHT22;10812;51.838;5.838;2023-05-23T05:54:57;13.30;99.90
21306;DHT22;10812;51.838;5.838;2023-05-23T06:01:36;13.30;99.90
21306;DHT22;10812;51.838;5.838;2023-05-23T06:04:04;13.20;99.90
21306;DHT22;10812;51.838;5.838;2023-05-23T06:06:33;13.30;99.90
21306;DHT22;10812;51.838;5.838;2023-05-23T06:09:01;13.30;99.90
21306;DHT22;10812;51.838;5.838;2023-05-23T06:11:29;13.40;99.90
21306;DHT22;10812;51.838;5.838;2023-05-23T06:13:58;13.30;99.90
21306;DHT22;10812;51.838;5.838;2023-05-23T06:16:26;13.40;99.90
21306;DHT22;10812;51.838;5.838;2023-05-23T06:18:56;13.40;99.90
21306;DHT22;10812;51.838;5.838;2023-05-23T06:21:24;13.40;99.90
21306;DHT22;10812;51.838;5.838;2023-05-23T06:23:53;13.40;99.90
21306;DHT22;10812;51.838;5.838;2023-05-23T06:26:21;13.30;99.90
21306;DHT22;10812;51.838;5.838;2023-05-23T06:28:49;13.40;99.90
21306;DHT22;10812;51.838;5.838;2023-05-23T06:31:17;13.40;99.90
21306;DHT22;10812;51.838;5.838;2023-05-23T06:33:45;13.40;99.90
21306;DHT22;10812;51.838;5.838;2023-05-23T06:43:56;13.50;99.90
21306;DHT22;10812;51.838;5.838;2023-05-23T06:46:24;13.60;99.90
21306;DHT22;10812;51.838;5.838;2023-05-23T06:48:53;13.60;99.90
21306;DHT22;10812;51.838;5.838;2023-05-23T06:51:39;13.70;99.90
21306;DHT22;10812;51.838;5.838;2023-05-23T06:54:07;13.60;99.90
21306;DHT22;10812;51.838;5.838;2023-05-23T06:56:35;13.50;99.90
21306;DHT22;10812;51.838;5.838;2023-05-23T06:59:05;13.50;99.90
21306;DHT22;10812;51.838;5.838;2023-05-23T07:12:31;13.70;99.90
21306;DHT22;10812;51.838;5.838;2023-05-23T07:15:02;13.90;99.90
21306;DHT22;10812;51.838;5.838;2023-05-23T07:17:30;14.00;99.90
21306;DHT22;10812;51.838;5.838;2023-05-23T07:19:58;14.10;99.90
21306;DHT22;10812;51.838;5.838;2023-05-23T07:22:26;14.30;99.90
21306;DHT22;10812;51.838;5.838;2023-05-23T07:24:54;15.30;99.90
21306;DHT22;10812;51.838;5.838;2023-05-23T07:27:23;17.30;99.90
21306;DHT22;10812;51.838;5.838;2023-05-23T07:29:53;17.70;99.90
21306;DHT22;10812;51.838;5.838;2023-05-23T07:36:05;17.60;99.90
21306;DHT22;10812;51.838;5.838;2023-05-23T07:41:57;17.00;99.90
21306;DHT22;10812;51.838;5.838;2023-05-23T07:44:27;16.10;99.90
21306;DHT22;10812;51.838;5.838;2023-05-23T07:46:55;15.80;99.90
21306;DHT22;10812;51.838;5.838;2023-05-23T07:49:23;16.00;99.90
21306;DHT22;10812;51.838;5.838;2023-05-23T07:51:53;16.00;99.90
21306;DHT22;10812;51.838;5.838;2023-05-23T07:54:21;16.10;99.90
21306;DHT22;10812;51.838;5.838;2023-05-23T07:56:49;16.30;99.90
21306;DHT22;10812;51.838;5.838;2023-05-23T07:59:17;16.40;99.90
21306;DHT22;10812;51.838;5.838;2023-05-23T08:01:45;16.90;99.90
21306;DHT22;10812;51.838;5.838;2023-05-23T08:04:16;17.40;99.90
21306;DHT22;10812;51.838;5.838;2023-05-23T08:06:44;17.60;99.90
21306;DHT22;10812;51.838;5.838;2023-05-23T08:09:32;17.50;99.90
21306;DHT22;10812;51.838;5.838;2023-05-23T08:12:00;16.90;99.90
21306;DHT22;10812;51.838;5.838;2023-05-23T08:14:29;16.30;99.90
21306;DHT22;10812;51.838;5.838;2023-05-23T08:17:16;16.10;99.90
21306;DHT22;10812;51.838;5.838;2023-05-23T08:19:45;16.10;99.90
21306;DHT22;10812;51.838;5.838;2023-05-23T08:22:13;16.20;99.90
21306;DHT22;10812;51.838;5.838;2023-05-23T08:24:43;16.10;99.90
21306;DHT22;10812;51.838;5.838;2023-05-23T08:27:11;15.90;99.90
21306;DHT22;10812;51.838;5.838;2023-05-23T08:29:39;15.80;99.90
21306;DHT22;10812;51.838;5.838;2023-05-23T08:32:07;15.30;99.90
21306;DHT22;10812;51.838;5.838;2023-05-23T08:34:36;15.10;99.90
21306;DHT22;10812;51.838;5.838;2023-05-23T08:37:04;14.80;99.90
21306;DHT22;10812;51.838;5.838;2023-05-23T08:39:32;14.70;99.90
21306;DHT22;10812;51.838;5.838;2023-05-23T08:42:02;14.80;99.90
21306;DHT22;10812;51.838;5.838;2023-05-23T08:44:30;14.60;99.90
21306;DHT22;10812;51.838;5.838;2023-05-23T08:47:03;14.80;99.90
21306;DHT22;10812;51.838;5.838;2023-05-23T08:49:32;14.70;99.90
21306;DHT22;10812;51.838;5.838;2023-05-23T08:52:20;14.80;99.90
21306;DHT22;10812;51.838;5.838;2023-05-23T08:54:49;14.80;99.90
21306;DHT22;10812;51.838;5.838;2023-05-23T08:57:19;15.70;99.90
21306;DHT22;10812;51.838;5.838;2023-05-23T08:59:48;16.40;99.90
21306;DHT22;10812;51.838;5.838;2023-05-23T09:02:17;16.60;99.90
21306;DHT22;10812;51.838;5.838;2023-05-23T09:04:45;16.70;99.90
21306;DHT22;10812;51.838;5.838;2023-05-23T09:07:15;17.30;99.90
21306;DHT22;10812;51.838;5.838;2023-05-23T09:09:45;17.60;99.90
21306;DHT22;10812;51.838;5.838;2023-05-23T09:12:17;17.60;99.90
21306;DHT22;10812;51.838;5.838;2023-05-23T09:14:49;18.60;99.90
21306;DHT22;10812;51.838;5.838;2023-05-23T09:17:18;18.30;99.90
21306;DHT22;10812;51.838;5.838;2023-05-23T09:19:46;18.20;99.90
21306;DHT22;10812;51.838;5.838;2023-05-23T09:22:15;18.00;99.90
21306;DHT22;10812;51.838;5.838;2023-05-23T09:24:43;18.10;99.90
21306;DHT22;10812;51.838;5.838;2023-05-23T09:27:11;17.30;99.90
21306;DHT22;10812;51.838;5.838;2023-05-23T09:29:39;16.90;99.90
21306;DHT22;10812;51.838;5.838;2023-05-23T09:32:13;16.90;99.90
21306;DHT22;10812;51.838;5.838;2023-05-23T09:34:41;17.50;99.90
21306;DHT22;10812;51.838;5.838;2023-05-23T09:37:11;17.80;99.90
21306;DHT22;10812;51.838;5.838;2023-05-23T09:39:46;17.40;99.90
21306;DHT22;10812;51.838;5.838;2023-05-23T09:42:19;17.40;99.90
21306;DHT22;10812;51.838;5.838;2023-05-23T09:44:47;17.10;99.90
21306;DHT22;10812;51.838;5.838;2023-05-23T09:47:17;17.10;99.90
21306;DHT22;10812;51.838;5.838;2023-05-23T09:49:45;17.00;99.90
21306;DHT22;10812;51.838;5.838;2023-05-23T09:52:14;17.30;99.90
21306;DHT22;10812;51.838;5.838;2023-05-23T09:54:42;17.10;99.90
21306;DHT22;10812;51.838;5.838;2023-05-23T09:57:14;17.00;99.90
21306;DHT22;10812;51.838;5.838;2023-05-23T09:59:51;16.90;99.90
21306;DHT22;10812;51.838;5.838;2023-05-23T10:05:28;17.50;99.90
21306;DHT22;10812;51.838;5.838;2023-05-23T10:08:00;18.10;99.90
21306;DHT22;10812;51.838;5.838;2023-05-23T10:10:30;18.20;99.90
21306;DHT22;10812;51.838;5.838;2023-05-23T10:13:02;17.90;99.90
21306;DHT22;10812;51.838;5.838;2023-05-23T10:15:36;18.10;99.90
21306;DHT22;10812;51.838;5.838;2023-05-23T10:18:11;18.00;99.90
21306;DHT22;10812;51.838;5.838;2023-05-23T10:20:42;17.70;99.90
21306;DHT22;10812;51.838;5.838;2023-05-23T10:23:14;17.70;99.90
21306;DHT22;10812;51.838;5.838;2023-05-23T10:25:43;17.50;99.90
21306;DHT22;10812;51.838;5.838;2023-05-23T10:28:12;17.40;99.90
21306;DHT22;10812;51.838;5.838;2023-05-23T10:30:42;18.00;99.90
21306;DHT22;10812;51.838;5.838;2023-05-23T10:33:13;18.50;99.90
21306;DHT22;10812;51.838;5.838;2023-05-23T10:35:49;19.00;99.90
21306;DHT22;10812;51.838;5.838;2023-05-23T10:38:29;19.30;99.90
21306;DHT22;10812;51.838;5.838;2023-05-23T10:41:05;18.90;99.90
21306;DHT22;10812;51.838;5.838;2023-05-23T10:43:41;19.20;99.90
21306;DHT22;10812;51.838;5.838;2023-05-23T10:46:12;19.30;99.90
21306;DHT22;10812;51.838;5.838;2023-05-23T10:48:43;19.50;99.90
21306;DHT22;10812;51.838;5.838;2023-05-23T10:51:13;19.20;99.90
21306;DHT22;10812;51.838;5.838;2023-05-23T10:53:43;19.10;99.90
21306;DHT22;10812;51.838;5.838;2023-05-23T10:56:20;18.60;99.90
21306;DHT22;10812;51.838;5.838;2023-05-23T10:58:52;18.30;99.90
21306;DHT22;10812;51.838;5.838;2023-05-23T11:01:21;18.00;99.90
21306;DHT22;10812;51.838;5.838;2023-05-23T11:03:52;17.70;99.90
21306;DHT22;10812;51.838;5.838;2023-05-23T11:06:30;17.60;99.90
21306;DHT22;10812;51.838;5.838;2023-05-23T11:09:03;18.10;99.90
21306;DHT22;10812;51.838;5.838;2023-05-23T11:11:55;18.50;99.90
21306;DHT22;10812;51.838;5.838;2023-05-23T11:14:52;18.60;99.90
21306;DHT22;10812;51.838;5.838;2023-05-23T11:17:31;18.70;99.90
21306;DHT22;10812;51.838;5.838;2023-05-23T11:20:04;18.60;99.90
21306;DHT22;10812;51.838;5.838;2023-05-23T11:22:33;18.60;99.90
21306;DHT22;10812;51.838;5.838;2023-05-23T11:25:06;18.60;99.90
21306;DHT22;10812;51.838;5.838;2023-05-23T11:27:35;18.00;99.90
21306;DHT22;10812;51.838;5.838;2023-05-23T11:30:07;17.90;99.90
21306;DHT22;10812;51.838;5.838;2023-05-23T11:32:36;18.20;99.90
21306;DHT22;10812;51.838;5.838;2023-05-23T11:35:07;18.30;99.90
21306;DHT22;10812;51.838;5.838;2023-05-23T11:37:37;18.30;99.90
21306;DHT22;10812;51.838;5.838;2023-05-23T11:40:28;18.70;99.90
21306;DHT22;10812;51.838;5.838;2023-05-23T11:42:57;19.00;99.90
21306;DHT22;10812;51.838;5.838;2023-05-23T11:45:26;19.00;99.90
21306;DHT22;10812;51.838;5.838;2023-05-23T11:47:55;18.60;99.90
21306;DHT22;10812;51.838;5.838;2023-05-23T11:50:24;18.50;99.90
21306;DHT22;10812;51.838;5.838;2023-05-23T11:52:54;18.70;99.90
21306;DHT22;10812;51.838;5.838;2023-05-23T11:55:22;18.90;99.90
21306;DHT22;10812;51.838;5.838;2023-05-23T11:57:55;19.00;99.90
21306;DHT22;10812;51.838;5.838;2023-05-23T12:00:23;19.00;99.90
21306;DHT22;10812;51.838;5.838;2023-05-23T12:02:51;18.90;99.90
21306;DHT22;10812;51.838;5.838;2023-05-23T12:05:19;18.50;99.90
21306;DHT22;10812;51.838;5.838;2023-05-23T12:07:49;18.30;99.90
21306;DHT22;10812;51.838;5.838;2023-05-23T12:10:17;18.40;99.90
21306;DHT22;10812;51.838;5.838;2023-05-23T12:12:47;18.10;99.90
21306;DHT22;10812;51.838;5.838;2023-05-23T12:15:18;17.90;99.90
21306;DHT22;10812;51.838;5.838;2023-05-23T12:17:53;18.10;99.90
21306;DHT22;10812;51.838;5.838;2023-05-23T12:20:26;18.30;99.90
21306;DHT22;10812;51.838;5.838;2023-05-23T12:22:57;17.90;99.90
21306;DHT22;10812;51.838;5.838;2023-05-23T12:25:25;17.80;99.90
21306;DHT22;10812;51.838;5.838;2023-05-23T12:27:53;17.70;99.90
21306;DHT22;10812;51.838;5.838;2023-05-23T12:30:22;17.70;99.90
21306;DHT22;10812;51.838;5.838;2023-05-23T12:32:50;17.70;99.90
21306;DHT22;10812;51.838;5.838;2023-05-23T12:39:10;17.80;99.90
21306;DHT22;10812;51.838;5.838;2023-05-23T12:41:41;17.70;99.90
21306;DHT22;10812;51.838;5.838;2023-05-23T12:44:13;17.70;99.90
21306;DHT22;10812;51.838;5.838;2023-05-23T12:46:42;17.90;99.90
21306;DHT22;10812;51.838;5.838;2023-05-23T12:49:10;17.80;99.90
21306;DHT22;10812;51.838;5.838;2023-05-23T12:51:39;17.80;99.90
21306;DHT22;10812;51.838;5.838;2023-05-23T12:54:07;17.80;99.90
21306;DHT22;10812;51.838;5.838;2023-05-23T12:56:37;18.10;99.90
21306;DHT22;10812;51.838;5.838;2023-05-23T12:59:05;18.30;99.90
21306;DHT22;10812;51.838;5.838;2023-05-23T13:01:34;18.00;99.90
21306;DHT22;10812;51.838;5.838;2023-05-23T13:04:02;17.80;99.90
21306;DHT22;10812;51.838;5.838;2023-05-23T13:06:30;17.90;99.90
21306;DHT22;10812;51.838;5.838;2023-05-23T13:08:59;18.10;99.90
21306;DHT22;10812;51.838;5.838;2023-05-23T13:15:40;18.30;99.90
21306;DHT22;10812;51.838;5.838;2023-05-23T13:18:09;18.20;99.90
21306;DHT22;10812;51.838;5.838;2023-05-23T13:20:37;17.80;99.90
21306;DHT22;10812;51.838;5.838;2023-05-23T13:23:05;17.50;99.90
21306;DHT22;10812;51.838;5.838;2023-05-23T13:25:35;17.50;99.90
21306;DHT22;10812;51.838;5.838;2023-05-23T13:28:03;17.60;99.90
21306;DHT22;10812;51.838;5.838;2023-05-23T13:30:33;17.80;99.90
21306;DHT22;10812;51.838;5.838;2023-05-23T13:33:03;18.00;99.90
21306;DHT22;10812;51.838;5.838;2023-05-23T13:35:31;18.00;99.90
21306;DHT22;10812;51.838;5.838;2023-05-23T13:37:59;17.80;99.90
21306;DHT22;10812;51.838;5.838;2023-05-23T13:40:27;18.30;99.90
21306;DHT22;10812;51.838;5.838;2023-05-23T13:42:56;18.30;99.90
21306;DHT22;10812;51.838;5.838;2023-05-23T13:45:24;18.10;99.90
21306;DHT22;10812;51.838;5.838;2023-05-23T13:47:52;18.10;99.90
21306;DHT22;10812;51.838;5.838;2023-05-23T13:50:22;17.80;99.90
21306;DHT22;10812;51.838;5.838;2023-05-23T13:52:50;17.80;99.90
21306;DHT22;10812;51.838;5.838;2023-05-23T13:55:18;17.90;99.90
21306;DHT22;10812;51.838;5.838;2023-05-23T13:57:47;18.20;99.90
21306;DHT22;10812;51.838;5.838;2023-05-23T14:00:15;18.10;99.90
21306;DHT22;10812;51.838;5.838;2023-05-23T14:02:43;18.00;99.90
21306;DHT22;10812;51.838;5.838;2023-05-23T14:05:12;18.00;99.90
21306;DHT22;10812;51.838;5.838;2023-05-23T14:07:42;17.80;99.90
21306;DHT22;10812;51.838;5.838;2023-05-23T14:10:13;17.90;99.90
21306;DHT22;10812;51.838;5.838;2023-05-23T14:12:43;18.00;99.90
21306;DHT22;10812;51.838;5.838;2023-05-23T14:15:11;18.10;99.90
21306;DHT22;10812;51.838;5.838;2023-05-23T14:17:40;18.00;99.90
21306;DHT22;10812;51.838;5.838;2023-05-23T14:20:08;17.70;99.90
21306;DHT22;10812;51.838;5.838;2023-05-23T14:22:37;18.00;99.90
21306;DHT22;10812;51.838;5.838;2023-05-23T14:25:07;18.20;99.90
21306;DHT22;10812;51.838;5.838;2023-05-23T14:27:35;18.30;99.90
21306;DHT22;10812;51.838;5.838;2023-05-23T14:30:05;18.10;99.90
21306;DHT22;10812;51.838;5.838;2023-05-23T14:32:33;18.10;99.90
21306;DHT22;10812;51.838;5.838;2023-05-23T14:35:05;17.80;99.90
21306;DHT22;10812;51.838;5.838;2023-05-23T14:37:34;17.50;99.90
21306;DHT22;10812;51.838;5.838;2023-05-23T14:40:04;17.00;99.90
21306;DHT22;10812;51.838;5.838;2023-05-23T14:42:34;16.90;99.90
21306;DHT22;10812;51.838;5.838;2023-05-23T14:45:02;16.90;99.90
21306;DHT22;10812;51.838;5.838;2023-05-23T14:47:30;16.90;99.90
21306;DHT22;10812;51.838;5.838;2023-05-23T14:49:59;17.00;99.90
21306;DHT22;10812;51.838;5.838;2023-05-23T14:52:27;17.20;99.90
21306;DHT22;10812;51.838;5.838;2023-05-23T14:54:55;17.30;99.90
21306;DHT22;10812;51.838;5.838;2023-05-23T14:57:23;17.00;99.90
21306;DHT22;10812;51.838;5.838;2023-05-23T14:59:53;16.70;99.90
21306;DHT22;10812;51.838;5.838;2023-05-23T15:02:21;16.50;99.90
21306;DHT22;10812;51.838;5.838;2023-05-23T15:04:49;16.40;99.90
21306;DHT22;10812;51.838;5.838;2023-05-23T15:07:18;16.20;99.90
21306;DHT22;10812;51.838;5.838;2023-05-23T15:09:46;16.40;99.90
21306;DHT22;10812;51.838;5.838;2023-05-23T15:12:14;16.50;99.90
21306;DHT22;10812;51.838;5.838;2023-05-23T15:14:42;16.60;99.90
21306;DHT22;10812;51.838;5.838;2023-05-23T15:17:12;16.90;99.90
21306;DHT22;10812;51.838;5.838;2023-05-23T15:19:46;17.00;99.90
21306;DHT22;10812;51.838;5.838;2023-05-23T15:22:14;17.00;99.90
21306;DHT22;10812;51.838;5.838;2023-05-23T15:25:02;17.00;99.90
21306;DHT22;10812;51.838;5.838;2023-05-23T15:27:31;17.20;99.90
21306;DHT22;10812;51.838;5.838;2023-05-23T15:29:59;17.20;99.90
21306;DHT22;10812;51.838;5.838;2023-05-23T15:32:28;17.20;99.90
21306;DHT22;10812;51.838;5.838;2023-05-23T15:34:57;17.10;99.90
21306;DHT22;10812;51.838;5.838;2023-05-23T15:37:25;17.00;99.90
21306;DHT22;10812;51.838;5.838;2023-05-23T15:39:53;17.10;99.90
21306;DHT22;10812;51.838;5.838;2023-05-23T15:42:21;16.90;99.90
21306;DHT22;10812;51.838;5.838;2023-05-23T15:44:49;17.20;99.90
21306;DHT22;10812;51.838;5.838;2023-05-23T15:47:18;17.50;99.90
21306;DHT22;10812;51.838;5.838;2023-05-23T15:49:48;17.40;99.90
21306;DHT22;10812;51.838;5.838;2023-05-23T15:52:16;17.10;99.90
21306;DHT22;10812;51.838;5.838;2023-05-23T16:02:26;16.50;99.90
21306;DHT22;10812;51.838;5.838;2023-05-23T16:04:55;16.60;99.90
21306;DHT22;10812;51.838;5.838;2023-05-23T16:07:23;16.60;99.90
21306;DHT22;10812;51.838;5.838;2023-05-23T16:09:52;16.40;99.90
21306;DHT22;10812;51.838;5.838;2023-05-23T16:12:20;16.30;99.90
21306;DHT22;10812;51.838;5.838;2023-05-23T16:14:48;16.20;99.90
21306;DHT22;10812;51.838;5.838;2023-05-23T16:17:16;16.00;99.90
21306;DHT22;10812;51.838;5.838;2023-05-23T16:19:44;15.90;99.90
21306;DHT22;10812;51.838;5.838;2023-05-23T16:22:14;16.00;99.90
21306;DHT22;10812;51.838;5.838;2023-05-23T16:24:42;16.00;99.90
21306;DHT22;10812;51.838;5.838;2023-05-23T16:27:10;15.80;99.90
21306;DHT22;10812;51.838;5.838;2023-05-23T16:29:38;15.70;99.90
21306;DHT22;10812;51.838;5.838;2023-05-23T16:32:07;15.90;99.90
21306;DHT22;10812;51.838;5.838;2023-05-23T16:34:35;15.90;99.90
21306;DHT22;10812;51.838;5.838;2023-05-23T16:37:03;15.80;99.90
21306;DHT22;10812;51.838;5.838;2023-05-23T16:39:34;15.60;99.90
21306;DHT22;10812;51.838;5.838;2023-05-23T16:42:02;15.60;99.90
21306;DHT22;10812;51.838;5.838;2023-05-23T16:44:30;15.50;99.90
21306;DHT22;10812;51.838;5.838;2023-05-23T16:46:58;15.40;99.90
21306;DHT22;10812;51.838;5.838;2023-05-23T16:49:26;15.30;99.90
21306;DHT22;10812;51.838;5.838;2023-05-23T16:51:54;15.30;99.90
21306;DHT22;10812;51.838;5.838;2023-05-23T16:54:23;15.20;99.90